Time;durP1;ratioP1;P1;durP2;ratioP2;P2;SDS_P1;SDS_P2;PMS_P1;PMS_P2;Temp;Humidity;BMP_temperature;BMP_pressure;BME280_temperature;BME280_humidity;BME280_pressure;Samples;Min_cycle;Max_cycle;Signal;HPM_P1;HPM_P2
2021/12/22 00:01:27;;;;;;;45.08;19.60;;;;;;;-145.18;100.00;47848.19;5046398;28;20049;-67
2021/12/22 00:03:53;;;;;;;42.38;19.10;;;;;;;-145.18;100.00;47813.03;5047307;28;20029;-67
2021/12/22 00:06:21;;;;;;;47.80;19.95;;;;;;;-145.18;100.00;47842.34;5045219;28;20421;-67
2021/12/22 00:08:47;;;;;;;48.65;20.85;;;;;;;-145.18;100.00;47815.00;5046529;28;20048;-67
2021/12/22 00:11:12;;;;;;;47.73;21.23;;;;;;;-145.18;100.00;47842.34;5046474;28;20113;-67
2021/12/22 00:13:38;;;;;;;45.30;20.47;;;;;;;-145.18;100.00;47836.47;5046259;28;20734;-67
2021/12/22 00:16:04;;;;;;;50.03;20.63;;;;;;;-145.18;100.00;47842.34;5046508;28;20123;-67
2021/12/22 00:18:29;;;;;;;45.73;21.07;;;;;;;-145.18;100.00;47846.25;5045688;28;20561;-67
2021/12/22 00:20:54;;;;;;;46.87;20.20;;;;;;;-145.18;100.00;47816.94;5046763;28;20041;-67
2021/12/22 00:23:20;;;;;;;46.30;22.67;;;;;;;-145.18;100.00;47826.72;5028407;28;20477;-67
2021/12/22 00:25:45;;;;;;;46.40;20.83;;;;;;;-145.18;100.00;47854.06;5046304;28;20045;-68
2021/12/22 00:28:10;;;;;;;41.00;20.03;;;;;;;-145.18;100.00;47791.53;5046808;28;20040;-68
2021/12/22 00:30:38;;;;;;;46.20;21.83;;;;;;;-145.18;100.00;47828.66;5043281;28;20482;-68
2021/12/22 00:33:04;;;;;;;48.22;20.42;;;;;;;-145.18;100.00;47828.66;5045560;28;20049;-67
2021/12/22 00:35:38;;;;;;;49.95;19.80;;;;;;;-145.18;100.00;47836.47;5046639;28;20037;-67
2021/12/22 00:38:05;;;;;;;46.03;19.88;;;;;;;-145.18;100.00;47840.38;5046722;28;20039;-68
2021/12/22 00:40:31;;;;;;;41.35;19.23;;;;;;;-145.18;100.00;47832.56;5045785;28;20087;-67
2021/12/22 00:42:56;;;;;;;40.70;20.23;;;;;;;-145.18;100.00;47842.34;5029074;28;20056;-67
2021/12/22 00:45:24;;;;;;;44.33;20.47;;;;;;;-145.18;100.00;47820.84;5045996;28;20041;-68
2021/12/22 00:47:50;;;;;;;42.40;18.73;;;;;;;-145.18;100.00;47828.66;5046278;28;20044;-67
2021/12/22 00:50:15;;;;;;;43.97;18.47;;;;;;;-145.18;100.00;47850.16;5046156;28;20045;-68
2021/12/22 00:52:41;;;;;;;41.77;18.17;;;;;;;-145.18;100.00;47857.97;5030522;28;20484;-67
2021/12/22 00:55:07;;;;;;;42.27;18.83;;;;;;;-145.18;100.00;47848.19;5050113;28;20461;-67
2021/12/22 00:57:34;;;;;;;51.42;21.83;;;;;;;-145.18;100.00;47852.13;5049932;28;20037;-67
2021/12/22 00:59:59;;;;;;;48.83;20.83;;;;;;;-145.18;100.00;47844.28;5049817;28;20036;-67
2021/12/22 01:02:25;;;;;;;42.63;20.37;;;;;;;-145.18;100.00;47832.56;5049838;28;20658;-67
2021/12/22 01:04:50;;;;;;;48.43;21.07;;;;;;;-145.18;100.00;47838.44;5049257;28;20047;-67
2021/12/22 01:07:16;;;;;;;50.67;20.60;;;;;;;-145.18;100.00;47863.84;5049614;28;20037;-68
2021/12/22 01:09:42;;;;;;;45.07;20.73;;;;;;;-145.18;100.00;47836.47;5050456;28;20072;-67
2021/12/22 01:12:08;;;;;;;53.63;22.17;;;;;;;-145.18;100.00;47840.38;5049519;28;20270;-67
2021/12/22 01:14:34;;;;;;;46.00;20.98;;;;;;;-145.18;100.00;47828.66;5049509;28;20064;-68
2021/12/22 01:17:02;;;;;;;49.08;21.55;;;;;;;-145.18;100.00;47857.97;5049431;28;20167;-66
2021/12/22 01:19:39;;;;;;;53.70;22.35;;;;;;;-145.18;100.00;47840.38;5049143;28;20044;-68
2021/12/22 01:22:21;;;;;;;47.58;21.25;;;;;;;-145.18;100.00;47848.19;5049730;28;20040;-68
2021/12/22 01:24:49;;;;;;;49.40;21.30;;;;;;;-145.18;100.00;47842.34;5049659;28;20086;-67
2021/12/22 01:27:20;;;;;;;44.63;20.13;;;;;;;-145.18;100.00;47840.38;5049697;28;20102;-67
2021/12/22 01:29:46;;;;;;;53.38;22.42;;;;;;;-145.18;100.00;47836.47;5049182;28;20044;-67
2021/12/22 01:32:13;;;;;;;49.93;21.93;;;;;;;-145.18;100.00;47873.59;5049516;28;20041;-67
2021/12/22 01:34:38;;;;;;;46.30;19.75;;;;;;;-145.18;100.00;47844.28;5049041;28;20517;-67
2021/12/22 01:37:04;;;;;;;44.43;19.97;;;;;;;-145.18;100.00;47859.94;5049209;28;20125;-67
2021/12/22 01:39:29;;;;;;;49.27;21.03;;;;;;;-145.18;100.00;47854.06;5030954;28;20120;-68
2021/12/22 01:41:55;;;;;;;47.70;20.60;;;;;;;-145.18;100.00;47832.56;5049895;28;20125;-67
2021/12/22 01:45:12;;;;;;;44.70;19.90;;;;;;;-145.18;100.00;47842.34;5048824;28;20041;-67
2021/12/22 01:50:28;;;;;;;49.67;21.48;;;;;;;-145.18;100.00;47846.25;5048673;28;20072;-67
2021/12/22 01:52:53;;;;;;;47.38;20.17;;;;;;;-145.18;100.00;47859.94;5049340;28;20037;-67
2021/12/22 01:55:30;;;;;;;61.03;21.23;;;;;;;-145.18;100.00;47850.16;5048477;28;20049;-67
2021/12/22 01:58:00;;;;;;;45.08;19.70;;;;;;;-145.18;100.00;47832.56;5049170;28;20044;-67
2021/12/22 02:00:25;;;;;;;44.55;19.55;;;;;;;-145.18;100.00;47854.06;5048615;28;20049;-67
2021/12/22 02:02:51;;;;;;;42.63;18.80;;;;;;;-145.18;100.00;47850.16;5048980;28;20412;-67
2021/12/22 02:05:17;;;;;;;45.67;18.47;;;;;;;-145.18;100.00;47861.88;5046508;28;20079;-67
2021/12/22 02:07:42;;;;;;;44.67;19.75;;;;;;;-145.18;100.00;47846.25;5048833;28;20047;-67
2021/12/22 02:10:34;;;;;;;47.90;18.33;;;;;;;-145.18;100.00;47850.16;5048604;28;20124;-67
2021/12/22 02:13:00;;;;;;;43.30;18.88;;;;;;;-145.18;100.00;47857.97;5048840;28;20045;-67
2021/12/22 02:15:29;;;;;;;46.13;19.63;;;;;;;-145.18;100.00;47850.16;5048348;28;20033;-67
2021/12/22 02:17:57;;;;;;;49.83;20.02;;;;;;;-145.18;100.00;47863.84;5048773;28;20037;-67
2021/12/22 02:20:22;;;;;;;45.47;19.52;;;;;;;-145.18;100.00;47850.16;5047678;28;20037;-68
2021/12/22 02:22:48;;;;;;;48.87;20.80;;;;;;;-145.18;100.00;47895.09;5048632;28;20374;-68
2021/12/22 02:25:19;;;;;;;47.57;20.73;;;;;;;-145.18;100.00;47875.56;5035440;28;20613;-68
2021/12/22 02:27:50;;;;;;;54.33;21.80;;;;;;;-145.18;100.00;47852.13;5028551;28;20057;-68
2021/12/22 02:30:23;;;;;;;57.55;21.33;;;;;;;-145.18;100.00;47881.41;5028153;28;20049;-67
2021/12/22 02:35:53;;;;;;;50.47;20.73;;;;;;;-145.18;100.00;47840.38;5028423;28;20499;-67
2021/12/22 02:38:18;;;;;;;48.03;20.02;;;;;;;-145.18;100.00;47863.84;5028342;28;20042;-67
2021/12/22 02:40:47;;;;;;;44.08;18.80;;;;;;;-145.18;100.00;47848.19;5028342;28;20159;-67
2021/12/22 02:43:19;;;;;;;46.88;20.25;;;;;;;-145.18;100.00;47877.50;5028186;28;20046;-67
2021/12/22 02:45:45;;;;;;;50.22;20.75;;;;;;;-145.18;100.00;47859.94;5027778;28;20530;-67
2021/12/22 02:48:10;;;;;;;55.70;19.67;;;;;;;-145.18;100.00;47861.88;5028126;28;20051;-67
2021/12/22 02:50:36;;;;;;;44.57;19.07;;;;;;;-145.18;100.00;47838.44;5027427;28;20041;-67
2021/12/22 02:53:13;;;;;;;49.47;20.67;;;;;;;-145.18;100.00;47856.03;5027890;28;20040;-67
2021/12/22 02:55:49;;;;;;;47.33;19.10;;;;;;;-145.18;100.00;47873.59;5027623;28;20383;-67
2021/12/22 03:04:00;;;;;;;51.13;18.88;;;;;;;-145.18;100.00;47846.25;5028199;28;20041;-67
2021/12/22 03:06:37;;;;;;;51.13;20.13;;;;;;;-145.18;100.00;47856.03;5043694;28;20037;-67
2021/12/22 03:09:22;;;;;;;47.38;21.02;;;;;;;-145.18;100.00;47881.41;5047798;28;20037;-67
2021/12/22 03:11:49;;;;;;;49.90;20.23;;;;;;;-145.18;100.00;47854.06;5047378;28;20037;-67
2021/12/22 03:14:18;;;;;;;52.00;21.15;;;;;;;-145.18;100.00;47859.94;5047486;28;20394;-67
2021/12/22 03:16:44;;;;;;;45.78;19.17;;;;;;;-145.18;100.00;47859.94;5046960;28;20041;-67
2021/12/22 03:19:12;;;;;;;49.72;19.63;;;;;;;-145.18;100.00;47856.03;5029213;28;20087;-67
2021/12/22 03:21:40;;;;;;;44.17;19.52;;;;;;;-145.18;100.00;47867.75;5047103;28;20037;-67
2021/12/22 03:24:05;;;;;;;45.55;19.63;;;;;;;-145.18;100.00;47836.47;5047249;28;20167;-67
2021/12/22 03:26:31;;;;;;;47.00;19.37;;;;;;;-145.18;100.00;47857.97;5046860;28;20124;-67
2021/12/22 03:28:56;;;;;;;56.30;20.73;;;;;;;-145.18;100.00;47854.06;5030122;28;20048;-67
2021/12/22 03:31:22;;;;;;;50.77;21.00;;;;;;;-145.18;100.00;47859.94;5046804;28;20044;-67
2021/12/22 03:33:47;;;;;;;48.67;20.77;;;;;;;-145.18;100.00;47848.19;5047225;28;20507;-67
2021/12/22 03:36:13;;;;;;;48.37;20.93;;;;;;;-145.18;100.00;47865.78;5029265;28;20059;-67
2021/12/22 03:38:39;;;;;;;45.50;20.17;;;;;;;-145.18;100.00;47846.25;5047073;28;20116;-67
2021/12/22 03:41:07;;;;;;;50.83;22.67;;;;;;;-145.18;100.00;47879.47;5046506;28;20044;-67
2021/12/22 03:43:33;;;;;;;53.38;21.08;;;;;;;-145.18;100.00;47848.19;5047042;28;20068;-68
2021/12/22 03:45:59;;;;;;;51.60;22.58;;;;;;;-145.18;100.00;47846.25;5047572;28;20033;-67
2021/12/22 03:48:26;;;;;;;54.27;21.67;;;;;;;-145.18;100.00;47879.47;5046177;28;20110;-67
2021/12/22 03:50:52;;;;;;;56.53;21.55;;;;;;;-145.18;100.00;47854.06;5046687;28;20055;-67
2021/12/22 03:53:18;;;;;;;48.85;21.63;;;;;;;-145.18;100.00;47856.03;5046395;28;20663;-67
2021/12/22 03:55:43;;;;;;;46.03;20.27;;;;;;;-145.18;100.00;47865.78;5046195;28;20044;-68
2021/12/22 03:58:09;;;;;;;49.67;19.33;;;;;;;-145.18;100.00;47881.41;5046522;28;20041;-68
2021/12/22 04:00:37;;;;;;;51.70;21.93;;;;;;;-145.18;100.00;47844.28;5047076;28;20399;-67
2021/12/22 04:03:03;;;;;;;50.80;20.23;;;;;;;-145.18;100.00;47836.47;5047041;28;20037;-67
2021/12/22 04:05:29;;;;;;;47.47;19.38;;;;;;;-145.18;100.00;47840.38;5045753;28;20060;-67
2021/12/22 04:07:55;;;;;;;43.20;18.73;;;;;;;-145.18;100.00;47867.75;5046402;28;20037;-67
2021/12/22 04:10:23;;;;;;;41.13;18.80;;;;;;;-145.18;100.00;47861.88;5046235;28;20041;-67
2021/12/22 04:12:54;;;;;;;46.58;19.25;;;;;;;-145.18;100.00;47873.59;5046408;28;20079;-68
2021/12/22 04:15:21;;;;;;;49.38;18.90;;;;;;;-145.18;100.00;47869.69;5046429;28;20132;-67
2021/12/22 04:17:47;;;;;;;49.65;20.63;;;;;;;-145.18;100.00;47867.75;5046100;28;20120;-67
2021/12/22 04:20:13;;;;;;;54.97;21.17;;;;;;;-145.18;100.00;47861.88;5045846;28;20609;-67
2021/12/22 04:22:38;;;;;;;57.93;22.33;;;;;;;-145.18;100.00;47856.03;5046776;28;20040;-67
2021/12/22 04:25:07;;;;;;;60.60;23.17;;;;;;;-145.18;100.00;47879.47;5046425;28;20277;-67
2021/12/22 04:27:32;;;;;;;52.10;21.50;;;;;;;-145.18;100.00;47850.16;5047239;28;20082;-67
2021/12/22 04:29:58;;;;;;;58.97;24.50;;;;;;;-145.18;100.00;47824.75;5050508;28;20037;-67
2021/12/22 04:32:23;;;;;;;65.73;23.33;;;;;;;-145.18;100.00;47856.03;5049978;28;20059;-67
2021/12/22 04:34:48;;;;;;;62.97;24.87;;;;;;;-145.18;100.00;47854.06;5049941;28;20167;-67
2021/12/22 04:37:14;;;;;;;57.57;22.53;;;;;;;-145.18;100.00;47842.34;5050968;28;20433;-67
2021/12/22 04:39:39;;;;;;;56.77;22.57;;;;;;;-145.18;100.00;47820.84;5050104;28;20118;-67
2021/12/22 04:42:05;;;;;;;68.97;26.00;;;;;;;-145.18;100.00;47856.03;5050153;28;20186;-67
2021/12/22 04:44:31;;;;;;;62.93;25.33;;;;;;;-145.18;100.00;47840.38;5049777;28;20045;-66
2021/12/22 04:46:58;;;;;;;71.63;26.47;;;;;;;-145.18;100.00;47856.03;5049714;28;20126;-67
2021/12/22 04:49:23;;;;;;;70.80;26.48;;;;;;;-145.18;100.00;47857.97;5049207;28;20053;-67
2021/12/22 04:51:52;;;;;;;67.00;24.17;;;;;;;-145.18;100.00;47842.34;5050552;28;20581;-67
2021/12/22 04:54:33;;;;;;;65.82;25.40;;;;;;;-145.18;100.00;47875.56;5050048;28;20044;-67
2021/12/22 04:56:59;;;;;;;65.03;22.77;;;;;;;-145.18;100.00;47850.16;5049900;28;20052;-67
2021/12/22 04:59:25;;;;;;;49.57;21.10;;;;;;;-145.18;100.00;47879.47;5049755;28;20402;-66
2021/12/22 05:01:51;;;;;;;50.03;20.80;;;;;;;-145.18;100.00;47863.84;5049824;28;20067;-66
2021/12/22 05:04:17;;;;;;;58.38;21.67;;;;;;;-145.18;100.00;47883.38;5049594;28;20482;-67
2021/12/22 05:06:42;;;;;;;55.87;21.23;;;;;;;-145.18;100.00;47852.13;5048855;28;20143;-67
2021/12/22 05:09:08;;;;;;;51.00;20.30;;;;;;;-145.18;100.00;47844.28;5049372;28;20048;-67
2021/12/22 05:11:34;;;;;;;47.03;20.83;;;;;;;-145.18;100.00;47861.88;5032364;28;20090;-66
2021/12/22 05:14:02;;;;;;;46.35;19.30;;;;;;;-145.18;100.00;47867.75;5049770;28;20041;-67
2021/12/22 05:16:28;;;;;;;52.53;21.60;;;;;;;-145.18;100.00;47881.41;5049217;28;20068;-67
2021/12/22 05:18:58;;;;;;;46.77;20.10;;;;;;;-145.18;100.00;47861.88;5049223;28;20091;-67
2021/12/22 05:21:26;;;;;;;45.85;18.02;;;;;;;-145.18;100.00;47887.28;5049087;28;20041;-67
2021/12/22 05:23:53;;;;;;;42.17;18.60;;;;;;;-145.18;100.00;47859.94;5049791;28;20037;-67
2021/12/22 05:26:20;;;;;;;46.30;18.98;;;;;;;-145.18;100.00;47854.06;5049205;28;20064;-67
2021/12/22 05:28:46;;;;;;;52.20;19.65;;;;;;;-145.18;100.00;47856.03;5049902;28;20084;-67
2021/12/22 05:31:11;;;;;;;51.20;19.63;;;;;;;-145.18;100.00;47869.69;5032124;28;20453;-66
2021/12/22 05:33:37;;;;;;;53.47;19.63;;;;;;;-145.18;100.00;47848.19;5031470;28;20033;-67
2021/12/22 05:36:03;;;;;;;47.37;18.80;;;;;;;-145.18;100.00;47857.97;5049181;28;21072;-67
2021/12/22 05:38:28;;;;;;;49.17;20.63;;;;;;;-145.18;100.00;47873.59;5048940;28;20040;-67
2021/12/22 05:40:54;;;;;;;49.80;20.53;;;;;;;-145.18;100.00;47867.75;5031271;28;20361;-67
2021/12/22 05:43:19;;;;;;;49.57;21.47;;;;;;;-145.18;100.00;47863.84;5048549;28;20063;-67
2021/12/22 05:45:45;;;;;;;53.50;20.67;;;;;;;-145.18;100.00;47836.47;5049738;28;20037;-67
2021/12/22 05:48:10;;;;;;;55.00;20.83;;;;;;;-145.18;100.00;47869.69;5049056;28;20037;-66
2021/12/22 05:50:36;;;;;;;47.00;20.13;;;;;;;-145.18;100.00;47873.59;5048208;28;20757;-67
2021/12/22 05:53:01;;;;;;;50.27;20.77;;;;;;;-145.18;100.00;47838.44;5045275;28;20055;-66
2021/12/22 05:55:26;;;;;;;53.13;21.97;;;;;;;-145.18;100.00;47859.94;5038263;28;20047;-67
2021/12/22 05:57:53;;;;;;;52.47;20.50;;;;;;;-145.18;100.00;47842.34;5028668;28;20116;-66
2021/12/22 06:00:19;;;;;;;46.78;20.63;;;;;;;-145.18;100.00;47844.28;5029437;28;20052;-67
2021/12/22 06:02:44;;;;;;;48.25;20.73;;;;;;;-145.18;100.00;47863.84;5028588;28;20406;-66
2021/12/22 06:05:10;;;;;;;50.07;19.90;;;;;;;-145.18;100.00;47877.50;5034603;28;20047;-66
2021/12/22 06:07:35;;;;;;;47.13;19.17;;;;;;;-145.18;100.00;47857.97;5038402;28;20098;-66
2021/12/22 06:10:01;;;;;;;47.67;20.40;;;;;;;-145.18;100.00;47861.88;5047734;28;20060;-66
2021/12/22 06:12:26;;;;;;;49.13;19.23;;;;;;;-145.18;100.00;47856.03;5046630;28;20071;-66
2021/12/22 06:14:52;;;;;;;41.93;19.23;;;;;;;-145.18;100.00;47836.47;5024418;28;20045;-66
2021/12/22 06:17:17;;;;;;;49.87;20.00;;;;;;;-145.18;100.00;47897.06;5042972;28;20041;-67
2021/12/22 06:19:42;;;;;;;42.93;18.53;;;;;;;-145.18;100.00;47887.28;5047061;28;20117;-66
2021/12/22 06:22:09;;;;;;;48.30;18.77;;;;;;;-145.18;100.00;47863.84;5047518;28;20037;-67
2021/12/22 06:24:34;;;;;;;54.40;19.58;;;;;;;-145.18;100.00;47875.56;5046413;28;20033;-66
2021/12/22 06:26:59;;;;;;;48.73;20.30;;;;;;;-145.18;100.00;47869.69;5047371;28;20047;-67
2021/12/22 06:29:25;;;;;;;46.07;18.50;;;;;;;-145.18;100.00;47881.41;5047803;28;20568;-66
2021/12/22 06:31:51;;;;;;;50.47;19.53;;;;;;;-145.18;100.00;47885.31;5047054;28;20536;-67
2021/12/22 06:34:16;;;;;;;47.00;19.00;;;;;;;-145.18;100.00;47883.38;5047361;28;20051;-67
2021/12/22 06:36:41;;;;;;;46.27;20.23;;;;;;;-145.18;100.00;47871.66;5016709;28;20597;-67
2021/12/22 06:39:07;;;;;;;48.80;20.27;;;;;;;-145.18;100.00;47857.97;5027357;28;20044;-66
2021/12/22 06:41:33;;;;;;;39.50;18.13;;;;;;;-145.18;100.00;47852.13;5027829;28;20033;-66
2021/12/22 06:43:59;;;;;;;47.28;18.67;;;;;;;-145.18;100.00;47885.31;5027351;28;20417;-66
2021/12/22 06:46:24;;;;;;;47.50;18.17;;;;;;;-145.18;100.00;47877.50;5027407;28;20120;-66
2021/12/22 06:48:50;;;;;;;46.63;18.90;;;;;;;-145.18;100.00;47887.28;5028059;28;20069;-66
2021/12/22 06:51:15;;;;;;;40.40;18.13;;;;;;;-145.18;100.00;47877.50;5027060;28;20048;-66
2021/12/22 06:53:41;;;;;;;51.47;19.27;;;;;;;-145.18;100.00;47871.66;5027587;28;20724;-66
2021/12/22 06:56:06;;;;;;;44.00;17.80;;;;;;;-145.18;100.00;47883.38;5027842;28;20072;-66
2021/12/22 06:58:32;;;;;;;50.30;18.97;;;;;;;-145.18;100.00;47865.78;5040938;28;20052;-66
2021/12/22 07:00:59;;;;;;;43.93;18.13;;;;;;;-145.18;100.00;47875.56;5047521;28;20091;-66
2021/12/22 07:03:24;;;;;;;49.70;18.50;;;;;;;-145.18;100.00;47893.16;5047373;28;20521;-66
2021/12/22 07:05:50;;;;;;;42.83;18.17;;;;;;;-145.18;100.00;47893.16;5029754;28;20116;-66
2021/12/22 07:08:15;;;;;;;46.57;18.33;;;;;;;-145.18;100.00;47906.81;5046970;28;20555;-66
2021/12/22 07:10:40;;;;;;;38.07;18.23;;;;;;;-145.18;100.00;47887.28;5046828;28;20068;-66
2021/12/22 07:13:07;;;;;;;46.73;19.07;;;;;;;-145.18;100.00;47879.47;5046540;28;20044;-66
2021/12/22 07:15:32;;;;;;;47.20;18.85;;;;;;;-145.18;100.00;47889.25;5036886;28;20041;-66
2021/12/22 07:17:57;;;;;;;43.00;19.73;;;;;;;-145.18;100.00;47906.81;5026143;28;20482;-66
2021/12/22 07:20:23;;;;;;;41.97;17.10;;;;;;;-145.18;100.00;47887.28;5046733;28;20045;-66
2021/12/22 07:22:49;;;;;;;56.03;19.97;;;;;;;-145.18;100.00;47877.50;5046431;28;20037;-66
2021/12/22 07:25:18;;;;;;;54.40;20.23;;;;;;;-145.18;100.00;47873.59;5047027;28;20064;-67
2021/12/22 07:27:44;;;;;;;53.35;19.25;;;;;;;-145.18;100.00;47863.84;5046833;28;20037;-66
2021/12/22 07:30:10;;;;;;;44.58;18.77;;;;;;;-145.18;100.00;47885.31;5047908;28;20047;-66
2021/12/22 07:32:36;;;;;;;50.95;20.00;;;;;;;-145.18;100.00;47895.09;5046351;28;20040;-67
2021/12/22 07:35:07;;;;;;;48.07;19.03;;;;;;;-145.18;100.00;47900.97;5046356;28;20040;-67
2021/12/22 07:37:46;;;;;;;46.85;19.30;;;;;;;-145.18;100.00;47902.91;5043363;28;20497;-66
2021/12/22 07:40:15;;;;;;;47.67;19.25;;;;;;;-145.18;100.00;47873.59;5041682;28;20049;-66
2021/12/22 07:42:41;;;;;;;43.45;18.30;;;;;;;-145.18;100.00;47875.56;5045297;28;20540;-66
2021/12/22 07:45:07;;;;;;;50.93;18.67;;;;;;;-145.18;100.00;47863.84;5046829;28;20048;-67
2021/12/22 07:47:33;;;;;;;44.40;17.65;;;;;;;-145.18;100.00;47879.47;5046477;28;20041;-66
2021/12/22 07:49:58;;;;;;;45.57;17.60;;;;;;;-145.18;100.00;47877.50;5046902;28;20059;-66
2021/12/22 07:52:26;;;;;;;44.63;17.30;;;;;;;-145.18;100.00;47904.88;5045909;28;20033;-67
2021/12/22 07:54:52;;;;;;;43.05;16.95;;;;;;;-145.18;100.00;47893.16;5046543;28;20045;-67
2021/12/22 07:57:17;;;;;;;43.07;18.47;;;;;;;-145.18;100.00;47895.09;5047165;28;20047;-67
2021/12/22 07:59:43;;;;;;;40.53;16.70;;;;;;;-145.18;100.00;47881.41;5046854;28;20033;-66
2021/12/22 08:02:09;;;;;;;40.97;17.43;;;;;;;-145.18;100.00;47883.38;5045709;28;20040;-66
2021/12/22 08:04:35;;;;;;;42.35;17.35;;;;;;;-145.18;100.00;47875.56;5046651;28;20033;-66
2021/12/22 08:07:01;;;;;;;39.40;17.03;;;;;;;-145.18;100.00;47875.56;5046137;28;20041;-66
2021/12/22 08:09:26;;;;;;;40.60;17.90;;;;;;;-145.18;100.00;47871.66;5045747;28;20278;-67
2021/12/22 08:12:04;;;;;;;44.93;18.03;;;;;;;-145.18;100.00;47873.59;5047013;28;20048;-66
2021/12/22 08:14:31;;;;;;;46.35;19.35;;;;;;;-145.18;100.00;47854.06;5046746;28;20112;-66
2021/12/22 08:16:57;;;;;;;45.45;17.65;;;;;;;-145.18;100.00;47871.66;5046270;28;20083;-66
2021/12/22 08:19:22;;;;;;;39.17;17.00;;;;;;;-145.18;100.00;47852.13;5046410;28;20037;-66
2021/12/22 08:21:47;;;;;;;40.70;17.73;;;;;;;-145.18;100.00;47832.56;5046022;28;20041;-67
2021/12/22 08:24:14;;;;;;;40.10;18.30;;;;;;;-145.18;100.00;47859.94;5046635;28;20037;-66
2021/12/22 08:26:39;;;;;;;39.10;18.23;;;;;;;-145.18;100.00;47857.97;5025600;28;20056;-66
2021/12/22 08:29:05;;;;;;;41.03;16.97;;;;;;;-145.18;100.00;47852.13;5026880;28;20045;-66
2021/12/22 08:31:30;;;;;;;43.10;18.63;;;;;;;-145.18;100.00;47869.69;5025352;28;20467;-66
2021/12/22 08:33:55;;;;;;;34.53;16.47;;;;;;;-145.18;100.00;47836.47;5028862;28;20041;-67
2021/12/22 08:39:10;;;;;;;42.40;17.13;;;;;;;-145.18;100.00;47846.25;5025645;28;20571;-67
2021/12/22 08:41:40;;;;;;;34.80;15.80;;;;;;;-145.18;100.00;47850.16;5024812;28;20050;-66
2021/12/22 08:44:09;;;;;;;40.85;17.02;;;;;;;-145.18;100.00;47850.16;5029915;28;20082;-67
2021/12/22 08:46:37;;;;;;;52.40;16.80;;;;;;;-145.18;100.00;47836.47;5027024;28;20075;-65
2021/12/22 08:49:05;;;;;;;35.15;17.08;;;;;;;-145.18;100.00;47836.47;5027656;28;20046;-67
2021/12/22 08:51:31;;;;;;;37.42;18.08;;;;;;;-145.18;100.00;47848.19;5024371;28;20047;-67
2021/12/22 08:53:56;;;;;;;34.37;16.20;;;;;;;-145.18;100.00;47854.06;5027771;28;20640;-67
2021/12/22 08:56:23;;;;;;;44.90;17.13;;;;;;;-145.18;100.00;47848.19;5025735;28;20120;-67
2021/12/22 08:58:49;;;;;;;34.90;15.70;;;;;;;-145.18;100.00;47832.56;5028147;28;20494;-67
2021/12/22 09:01:15;;;;;;;42.57;16.33;;;;;;;-145.18;100.00;47857.97;5040475;28;20041;-67
2021/12/22 09:03:40;;;;;;;37.20;15.03;;;;;;;-145.18;100.00;47830.63;5030260;28;20033;-66
2021/12/22 09:06:06;;;;;;;38.10;16.90;;;;;;;-145.18;100.00;47805.22;5009818;28;20033;-67
2021/12/22 09:08:31;;;;;;;33.87;15.57;;;;;;;-145.18;100.00;47818.91;5023665;28;20033;-67
2021/12/22 09:10:57;;;;;;;34.87;15.80;;;;;;;-145.18;100.00;47824.75;5029258;28;20049;-66
2021/12/22 09:13:22;;;;;;;40.00;16.27;;;;;;;-145.18;100.00;47805.22;5046523;28;20516;-67
2021/12/22 09:15:48;;;;;;;40.60;14.97;;;;;;;-145.18;100.00;47828.66;5048351;28;20048;-67
2021/12/22 09:18:14;;;;;;;34.03;16.13;;;;;;;-145.18;100.00;47807.16;5049688;28;20825;-67
2021/12/22 09:20:39;;;;;;;35.87;15.93;;;;;;;-145.18;100.00;47801.31;5049454;28;20040;-67
2021/12/22 09:23:04;;;;;;;35.80;16.23;;;;;;;-145.18;100.00;47793.50;5049395;28;20037;-67
2021/12/22 09:25:30;;;;;;;40.30;16.80;;;;;;;-145.18;100.00;47807.16;5048618;28;20052;-67
2021/12/22 09:27:58;;;;;;;33.70;15.47;;;;;;;-145.18;100.00;47805.22;5047631;28;20578;-67
2021/12/22 09:30:23;;;;;;;31.05;17.02;;;;;;;-145.18;100.00;47789.59;5028745;28;20495;-67
2021/12/22 09:32:49;;;;;;;28.80;15.73;;;;;;;-145.18;100.00;47791.53;5029390;28;20061;-67
2021/12/22 09:35:14;;;;;;;35.87;15.00;;;;;;;-145.18;100.00;47783.72;5036447;28;20052;-67
2021/12/22 09:37:40;;;;;;;31.03;16.37;;;;;;;-145.18;100.00;47797.41;5030946;28;20135;-67
2021/12/22 09:40:06;;;;;;;35.23;16.53;;;;;;;-145.18;100.00;47783.72;5048809;28;20041;-67
2021/12/22 09:42:32;;;;;;;33.03;15.18;;;;;;;-145.18;100.00;47789.59;5049083;28;20060;-67
2021/12/22 09:45:00;;;;;;;31.17;14.23;;;;;;;-145.18;100.00;47795.44;5049285;28;20414;-68
2021/12/22 09:47:27;;;;;;;30.13;15.63;;;;;;;-145.18;100.00;47807.16;5048089;28;20699;-68
2021/12/22 09:52:30;;;;;;;31.60;15.10;;;;;;;-145.18;100.00;47760.28;5029088;28;20052;-68
2021/12/22 09:54:59;;;;;;;34.00;16.10;;;;;;;-145.18;100.00;47764.19;5037181;28;20155;-68
2021/12/22 09:57:26;;;;;;;35.50;16.27;;;;;;;-145.18;100.00;47801.31;5048050;28;20413;-68
2021/12/22 09:59:53;;;;;;;31.40;14.88;;;;;;;-145.18;100.00;47801.31;5030954;28;20547;-68
2021/12/22 10:02:22;;;;;;;28.38;15.27;;;;;;;-145.18;100.00;47756.38;5048017;28;20091;-68
2021/12/22 10:04:48;;;;;;;36.22;15.93;;;;;;;-145.18;100.00;47777.88;5048798;28;20044;-68
2021/12/22 10:07:19;;;;;;;27.50;14.67;;;;;;;-145.18;100.00;47772.00;5037505;28;20088;-68
2021/12/22 10:09:47;;;;;;;31.20;15.73;;;;;;;-145.18;100.00;47750.50;5047304;28;20266;-69
2021/12/22 10:12:16;;;;;;;29.85;15.07;;;;;;;-145.18;100.00;47752.47;5047646;28;20061;-70
2021/12/22 10:14:54;;;;;;;35.65;15.02;;;;;;;-145.18;100.00;47750.50;5048099;28;20036;-69
2021/12/22 10:17:42;;;;;;;25.17;14.43;;;;;;;-145.18;100.00;47758.31;5047885;28;20048;-69
2021/12/22 10:20:20;;;;;;;28.65;14.93;;;;;;;-145.18;100.00;47750.50;5048441;28;20513;-69
2021/12/22 10:22:48;;;;;;;30.20;15.27;;;;;;;-145.18;100.00;47703.63;5047540;28;20060;-69
2021/12/22 10:25:22;;;;;;;38.03;16.45;;;;;;;-145.18;100.00;47742.69;5037318;28;20068;-69
2021/12/22 10:28:09;;;;;;;26.77;14.43;;;;;;;-145.18;100.00;47740.75;5028721;28;20042;-70
2021/12/22 10:30:41;;;;;;;33.40;16.52;;;;;;;-145.18;100.00;47730.97;5037295;28;20037;-70
2021/12/22 10:33:10;;;;;;;28.35;15.48;;;;;;;-145.18;100.00;47721.19;5037295;28;20047;-70
2021/12/22 10:35:38;;;;;;;26.35;14.70;;;;;;;-145.18;100.00;47705.56;5047012;28;20091;-70
2021/12/22 10:38:05;;;;;;;28.80;15.57;;;;;;;-145.18;100.00;47717.28;5047527;28;20131;-70
2021/12/22 10:40:33;;;;;;;30.75;14.98;;;;;;;-145.18;100.00;47701.66;5043690;28;20515;-70
2021/12/22 10:43:01;;;;;;;32.25;14.85;;;;;;;-145.18;100.00;47711.44;5047198;28;20111;-70
2021/12/22 10:45:29;;;;;;;24.08;15.15;;;;;;;-145.18;100.00;47697.75;5039847;28;20545;-69
2021/12/22 10:50:42;;;;;;;35.30;17.48;;;;;;;-145.18;100.00;47678.22;5025935;28;20045;-69
2021/12/22 10:53:09;;;;;;;26.45;15.13;;;;;;;-145.18;100.00;47687.97;5028454;28;20494;-69
2021/12/22 10:55:40;;;;;;;25.98;14.45;;;;;;;-145.18;100.00;47664.53;5027493;28;20093;-69
2021/12/22 10:58:28;;;;;;;28.50;15.00;;;;;;;-145.18;100.00;47660.63;5039572;28;20076;-70
2021/12/22 11:01:07;;;;;;;30.13;15.65;;;;;;;-145.18;100.00;47648.91;5039168;28;20154;-70
2021/12/22 11:03:54;;;;;;;24.55;13.95;;;;;;;-145.18;100.00;47646.97;5047461;28;20033;-71
2021/12/22 11:06:27;;;;;;;26.77;14.98;;;;;;;-145.18;100.00;47672.34;5047297;28;20060;-71
2021/12/22 11:09:03;;;;;;;34.72;15.35;;;;;;;-145.18;100.00;47664.53;5046979;28;20029;-71
2021/12/22 11:11:38;;;;;;;26.08;14.15;;;;;;;-145.18;100.00;47660.63;5047427;28;20045;-71
2021/12/22 11:14:22;;;;;;;27.90;15.60;;;;;;;-145.18;100.00;47654.78;5047467;28;20111;-71
2021/12/22 11:17:01;;;;;;;27.38;13.90;;;;;;;-145.18;100.00;47654.78;5047125;28;20036;-72